Time;durP1;ratioP1;P1;durP2;ratioP2;P2;SDS_P1;SDS_P2;PMS_P1;PMS_P2;Temp;Humidity;BMP_temperature;BMP_pressure;BME280_temperature;BME280_humidity;BME280_pressure;Samples;Min_cycle;Max_cycle;Signal;HPM_P1;HPM_P2
2023/12/09 00:01:42;;;;;;;9.30;5.13;;;;;;;;;;5155840;27;20050;-61
2023/12/09 00:04:09;;;;;;;9.32;4.93;;;;;;;;;;5155846;27;20047;-62
2023/12/09 00:06:36;;;;;;;10.98;5.40;;;;;;;;;;5151798;27;20176;-61
2023/12/09 00:09:04;;;;;;;8.40;5.13;;;;;;;;;;5156139;27;20057;-62
2023/12/09 00:11:31;;;;;;;11.68;5.32;;;;;;;;;;5155860;27;20414;-61
2023/12/09 00:14:03;;;;;;;8.95;5.07;;;;;;;;;;5155797;27;20047;-62
2023/12/09 00:16:30;;;;;;;8.32;4.88;;;;;;;;;;5155032;27;20395;-62
2023/12/09 00:18:57;;;;;;;8.38;5.47;;;;;;;;;;5156038;27;20410;-64
2023/12/09 00:21:24;;;;;;;9.65;4.90;;;;;;;;;;5154552;27;20403;-62
2023/12/09 00:23:51;;;;;;;8.70;5.40;;;;;;;;;;5135267;27;20051;-62
2023/12/09 00:26:19;;;;;;;9.10;4.97;;;;;;;;;;5137267;27;20051;-62
2023/12/09 00:28:46;;;;;;;11.38;4.88;;;;;;;;;;5155347;27;20061;-62
2023/12/09 00:31:13;;;;;;;9.65;5.18;;;;;;;;;;5155534;27;20046;-62
2023/12/09 00:33:40;;;;;;;8.18;5.13;;;;;;;;;;5144664;27;20047;-62
2023/12/09 00:36:07;;;;;;;9.30;4.88;;;;;;;;;;5135357;27;20059;-62
2023/12/09 00:38:34;;;;;;;10.27;5.35;;;;;;;;;;5134941;27;20054;-62
2023/12/09 00:41:00;;;;;;;7.78;5.47;;;;;;;;;;5134468;27;20047;-62
2023/12/09 00:43:28;;;;;;;8.52;4.22;;;;;;;;;;5134698;27;20408;-62
2023/12/09 00:45:55;;;;;;;8.80;4.88;;;;;;;;;;5134113;27;20055;-62
2023/12/09 00:48:22;;;;;;;7.65;4.45;;;;;;;;;;5154531;27;20051;-62
2023/12/09 00:50:49;;;;;;;11.38;4.93;;;;;;;;;;5155126;27;20384;-62
2023/12/09 00:53:16;;;;;;;10.90;5.10;;;;;;;;;;5138261;27;20391;-62
2023/12/09 00:55:43;;;;;;;7.82;4.68;;;;;;;;;;5134554;27;20051;-62
2023/12/09 00:58:09;;;;;;;7.72;4.32;;;;;;;;;;5152615;27;20059;-62
2023/12/09 01:00:38;;;;;;;5.15;3.72;;;;;;;;;;5154920;27;20050;-62
2023/12/09 01:03:04;;;;;;;7.25;4.55;;;;;;;;;;5154331;27;20055;-63
2023/12/09 01:05:31;;;;;;;9.02;4.82;;;;;;;;;;5154791;27;20055;-63
2023/12/09 01:07:58;;;;;;;9.43;4.45;;;;;;;;;;5152241;27;20057;-63
2023/12/09 01:10:25;;;;;;;10.20;4.40;;;;;;;;;;5154700;27;20411;-62
2023/12/09 01:12:52;;;;;;;10.55;4.57;;;;;;;;;;5155404;27;20055;-62
2023/12/09 01:15:19;;;;;;;9.10;4.18;;;;;;;;;;5154662;27;20047;-62
2023/12/09 01:17:47;;;;;;;10.00;3.85;;;;;;;;;;5154518;27;20510;-62
2023/12/09 01:20:15;;;;;;;7.90;4.22;;;;;;;;;;5154418;27;20053;-62
2023/12/09 01:22:42;;;;;;;12.25;4.63;;;;;;;;;;5143593;27;20051;-63
2023/12/09 01:25:08;;;;;;;8.63;4.28;;;;;;;;;;5133593;27;20058;-60
2023/12/09 01:27:35;;;;;;;6.20;3.72;;;;;;;;;;5145414;27;20050;-62
2023/12/09 01:30:02;;;;;;;8.70;4.22;;;;;;;;;;5153818;27;20168;-62
2023/12/09 01:32:28;;;;;;;7.18;3.97;;;;;;;;;;5154247;27;20046;-66
2023/12/09 01:34:57;;;;;;;6.72;3.72;;;;;;;;;;5133229;27;20051;-62
2023/12/09 01:37:23;;;;;;;10.07;4.03;;;;;;;;;;5134669;27;20055;-62
2023/12/09 01:39:50;;;;;;;6.45;4.13;;;;;;;;;;5133694;27;20051;-62
2023/12/09 01:42:17;;;;;;;8.88;4.40;;;;;;;;;;5133698;27;20051;-62
2023/12/09 01:44:44;;;;;;;8.80;4.05;;;;;;;;;;5133245;27;20050;-62
2023/12/09 01:47:11;;;;;;;11.27;4.40;;;;;;;;;;5141400;27;20051;-62
2023/12/09 01:49:39;;;;;;;7.57;3.80;;;;;;;;;;5154158;27;20058;-62
2023/12/09 01:52:07;;;;;;;7.28;3.35;;;;;;;;;;5152076;27;20066;-62
2023/12/09 01:54:34;;;;;;;10.25;3.78;;;;;;;;;;5153861;27;20050;-61
2023/12/09 01:57:01;;;;;;;9.65;3.95;;;;;;;;;;5153796;27;20114;-62
2023/12/09 01:59:28;;;;;;;9.35;4.15;;;;;;;;;;5153800;27;20051;-61
2023/12/09 02:01:55;;;;;;;10.05;3.58;;;;;;;;;;5153576;27;20475;-63
2023/12/09 02:04:22;;;;;;;9.15;4.00;;;;;;;;;;5154040;27;20050;-62
2023/12/09 02:06:49;;;;;;;8.38;3.63;;;;;;;;;;5150463;27;20043;-62
2023/12/09 02:09:18;;;;;;;9.38;4.03;;;;;;;;;;5146469;27;20055;-62
2023/12/09 02:11:50;;;;;;;8.32;3.88;;;;;;;;;;5153869;27;20057;-62
2023/12/09 02:14:20;;;;;;;7.40;3.42;;;;;;;;;;5153811;27;20058;-62
2023/12/09 02:16:49;;;;;;;8.93;3.67;;;;;;;;;;5153700;27;20407;-62
2023/12/09 02:19:17;;;;;;;11.75;3.70;;;;;;;;;;5153967;27;20078;-62
2023/12/09 02:21:59;;;;;;;10.70;3.63;;;;;;;;;;5151366;27;20047;-62
2023/12/09 02:24:28;;;;;;;7.38;3.45;;;;;;;;;;5153794;27;20043;-62
2023/12/09 02:26:56;;;;;;;9.80;3.85;;;;;;;;;;5153388;27;20042;-61
2023/12/09 02:29:25;;;;;;;6.97;3.35;;;;;;;;;;5153281;27;20050;-62
2023/12/09 02:31:53;;;;;;;7.63;3.25;;;;;;;;;;5153366;27;20057;-62
2023/12/09 02:34:21;;;;;;;10.27;4.10;;;;;;;;;;5153208;27;20047;-62
2023/12/09 02:36:48;;;;;;;8.38;3.70;;;;;;;;;;5146452;27;20510;-62
2023/12/09 02:39:16;;;;;;;10.98;3.85;;;;;;;;;;5133647;27;20625;-61
2023/12/09 02:41:45;;;;;;;7.30;3.42;;;;;;;;;;5137133;27;20411;-62
2023/12/09 02:44:12;;;;;;;7.90;3.38;;;;;;;;;;5137240;27;20058;-62
2023/12/09 02:46:39;;;;;;;7.95;3.55;;;;;;;;;;5142842;27;20046;-63
2023/12/09 02:49:05;;;;;;;9.77;3.65;;;;;;;;;;5157250;27;20541;-63
2023/12/09 02:51:32;;;;;;;9.32;4.35;;;;;;;;;;5155849;27;20042;-62
2023/12/09 02:53:59;;;;;;;11.13;3.92;;;;;;;;;;5157041;27;20058;-62
2023/12/09 02:56:26;;;;;;;10.18;3.90;;;;;;;;;;5156808;27;20047;-62
2023/12/09 02:58:54;;;;;;;8.48;3.80;;;;;;;;;;5157367;27;20483;-62
2023/12/09 03:01:21;;;;;;;8.95;3.80;;;;;;;;;;5156758;27;20055;-62
2023/12/09 03:03:47;;;;;;;8.55;3.90;;;;;;;;;;5147797;27;20062;-61
2023/12/09 03:06:14;;;;;;;9.32;3.90;;;;;;;;;;5137407;27;20047;-61
2023/12/09 03:08:41;;;;;;;7.65;3.50;;;;;;;;;;5152915;27;20050;-62
2023/12/09 03:11:08;;;;;;;10.68;3.47;;;;;;;;;;5157121;27;20059;-65
2023/12/09 03:13:34;;;;;;;9.18;4.20;;;;;;;;;;5157221;27;20380;-62
2023/12/09 03:16:03;;;;;;;11.50;3.75;;;;;;;;;;5156340;27;20043;-61
2023/12/09 03:18:29;;;;;;;6.20;3.38;;;;;;;;;;5156879;27;20055;-62
2023/12/09 03:20:56;;;;;;;13.70;4.18;;;;;;;;;;5156935;27;20054;-61
2023/12/09 03:23:23;;;;;;;8.40;3.60;;;;;;;;;;5139554;27;20058;-62
2023/12/09 03:25:50;;;;;;;8.75;3.60;;;;;;;;;;5136202;27;20051;-62
2023/12/09 03:28:16;;;;;;;10.93;3.60;;;;;;;;;;5155515;27;20057;-63
2023/12/09 03:30:43;;;;;;;10.25;3.78;;;;;;;;;;5156371;27;20046;-61
2023/12/09 03:33:12;;;;;;;8.00;3.50;;;;;;;;;;5156758;27;20463;-62
2023/12/09 03:35:38;;;;;;;6.75;3.30;;;;;;;;;;5156691;27;20054;-64
2023/12/09 03:38:05;;;;;;;8.32;3.75;;;;;;;;;;5140276;27;20047;-62
2023/12/09 03:40:32;;;;;;;9.15;3.40;;;;;;;;;;5135819;27;20055;-62
2023/12/09 03:42:58;;;;;;;7.85;3.75;;;;;;;;;;5136096;27;20054;-62
2023/12/09 03:45:24;;;;;;;8.98;3.38;;;;;;;;;;5135771;27;20122;-62
2023/12/09 03:47:51;;;;;;;8.73;3.47;;;;;;;;;;5144352;27;20057;-62
2023/12/09 03:50:19;;;;;;;7.30;3.65;;;;;;;;;;5135507;27;20051;-61
2023/12/09 03:52:46;;;;;;;9.98;3.53;;;;;;;;;;5147086;27;20057;-61
2023/12/09 03:55:15;;;;;;;10.25;3.90;;;;;;;;;;5155860;27;20058;-61
2023/12/09 03:57:42;;;;;;;6.18;3.13;;;;;;;;;;5156041;27;20403;-62
2023/12/09 04:00:09;;;;;;;9.45;3.60;;;;;;;;;;5156321;27;20410;-62
2023/12/09 04:02:36;;;;;;;8.90;3.28;;;;;;;;;;5155923;27;20061;-63
2023/12/09 04:05:05;;;;;;;8.27;3.58;;;;;;;;;;5155723;27;20046;-62
2023/12/09 04:07:34;;;;;;;10.18;3.45;;;;;;;;;;5154279;27;20058;-63
2023/12/09 04:10:00;;;;;;;8.98;3.22;;;;;;;;;;5156221;27;20069;-62
2023/12/09 04:12:27;;;;;;;8.25;3.28;;;;;;;;;;5156158;27;20053;-62
2023/12/09 04:14:54;;;;;;;9.05;3.30;;;;;;;;;;5156047;27;20051;-62
2023/12/09 04:17:21;;;;;;;8.10;3.78;;;;;;;;;;5155533;27;20050;-62
2023/12/09 04:19:48;;;;;;;9.07;3.63;;;;;;;;;;5155530;27;20050;-63
2023/12/09 04:22:15;;;;;;;9.38;3.53;;;;;;;;;;5153804;27;20047;-62
2023/12/09 04:24:43;;;;;;;7.30;3.10;;;;;;;;;;5155782;27;20058;-63
2023/12/09 04:27:10;;;;;;;6.75;3.40;;;;;;;;;;5155587;27;20046;-63
2023/12/09 04:29:37;;;;;;;10.10;3.42;;;;;;;;;;5155391;27;20042;-63
2023/12/09 04:32:03;;;;;;;13.57;4.05;;;;;;;;;;5155785;27;20471;-63
2023/12/09 04:34:30;;;;;;;10.23;3.85;;;;;;;;;;5154174;27;20057;-62
2023/12/09 04:36:57;;;;;;;8.93;3.67;;;;;;;;;;5150944;27;20038;-63
2023/12/09 04:39:24;;;;;;;8.95;3.35;;;;;;;;;;5134716;27;20047;-62
2023/12/09 04:41:52;;;;;;;10.45;3.97;;;;;;;;;;5134489;27;20058;-63
2023/12/09 04:44:19;;;;;;;8.68;3.78;;;;;;;;;;5135092;27;20513;-62
2023/12/09 04:46:46;;;;;;;8.82;3.50;;;;;;;;;;5137633;27;20050;-62
2023/12/09 04:49:12;;;;;;;10.27;3.67;;;;;;;;;;5155016;27;20077;-62
2023/12/09 04:51:39;;;;;;;8.35;3.90;;;;;;;;;;5154662;27;20050;-62
2023/12/09 04:54:07;;;;;;;8.07;3.95;;;;;;;;;;5153984;27;20081;-63
2023/12/09 04:56:34;;;;;;;10.43;3.75;;;;;;;;;;5154665;27;20444;-62
2023/12/09 04:59:02;;;;;;;9.07;3.95;;;;;;;;;;5155280;27;20495;-62
2023/12/09 05:01:29;;;;;;;12.45;4.15;;;;;;;;;;5154830;27;20062;-62
2023/12/09 05:03:56;;;;;;;11.32;4.07;;;;;;;;;;5132627;27;20055;-63
2023/12/09 05:06:23;;;;;;;8.98;3.90;;;;;;;;;;5113740;28;20055;-62
2023/12/09 05:08:50;;;;;;;10.63;3.88;;;;;;;;;;5148860;27;20046;-62
2023/12/09 05:11:17;;;;;;;9.43;4.15;;;;;;;;;;5154893;27;20051;-63
2023/12/09 05:13:43;;;;;;;8.45;3.20;;;;;;;;;;5155271;27;20046;-63
2023/12/09 05:16:12;;;;;;;10.68;3.88;;;;;;;;;;5154722;27;20372;-62
2023/12/09 05:18:38;;;;;;;8.90;3.78;;;;;;;;;;5118279;27;20549;-62
2023/12/09 05:21:05;;;;;;;6.72;4.10;;;;;;;;;;5113632;28;20058;-62
2023/12/09 05:23:33;;;;;;;7.30;3.40;;;;;;;;;;5127965;27;20047;-63
2023/12/09 05:26:00;;;;;;;8.63;4.07;;;;;;;;;;5133841;27;20070;-62
2023/12/09 05:28:26;;;;;;;8.85;4.07;;;;;;;;;;5133712;27;20097;-62
2023/12/09 05:30:53;;;;;;;10.77;3.75;;;;;;;;;;5133851;27;20062;-62
2023/12/09 05:33:21;;;;;;;8.52;3.42;;;;;;;;;;5133396;27;20043;-62
2023/12/09 05:35:48;;;;;;;7.47;3.90;;;;;;;;;;5133297;27;20376;-62
2023/12/09 05:38:15;;;;;;;9.98;3.95;;;;;;;;;;5121101;27;20062;-63
2023/12/09 05:40:42;;;;;;;6.78;3.95;;;;;;;;;;5113188;28;20145;-62
2023/12/09 05:43:08;;;;;;;8.07;3.67;;;;;;;;;;5113430;28;20051;-62
2023/12/09 05:45:35;;;;;;;8.18;3.72;;;;;;;;;;5113424;28;20491;-63
2023/12/09 05:48:02;;;;;;;11.02;3.72;;;;;;;;;;5125223;27;20058;-62
2023/12/09 05:50:30;;;;;;;8.70;4.13;;;;;;;;;;5133617;27;20066;-62
2023/12/09 05:52:57;;;;;;;8.35;3.80;;;;;;;;;;5125895;27;20050;-62
2023/12/09 05:55:24;;;;;;;7.57;4.20;;;;;;;;;;5112935;28;20059;-62
2023/12/09 05:57:51;;;;;;;9.30;3.22;;;;;;;;;;5114185;27;20500;-63
2023/12/09 06:00:18;;;;;;;9.02;3.53;;;;;;;;;;5125124;27;20055;-62
2023/12/09 06:02:45;;;;;;;5.90;3.63;;;;;;;;;;5132830;27;20502;-62
2023/12/09 06:05:11;;;;;;;5.15;3.38;;;;;;;;;;5133230;27;20058;-62
2023/12/09 06:07:39;;;;;;;7.13;3.38;;;;;;;;;;5129911;27;20051;-62
2023/12/09 06:10:07;;;;;;;6.90;3.67;;;;;;;;;;5142745;27;20039;-62
2023/12/09 06:12:34;;;;;;;7.63;3.72;;;;;;;;;;5133103;28;20070;-63
2023/12/09 06:15:00;;;;;;;6.03;3.58;;;;;;;;;;5126404;27;20372;-62
2023/12/09 06:17:27;;;;;;;5.82;3.17;;;;;;;;;;5112223;28;20048;-62
2023/12/09 06:19:54;;;;;;;9.18;4.10;;;;;;;;;;5112293;28;20054;-63
2023/12/09 06:22:21;;;;;;;7.70;3.70;;;;;;;;;;5113339;27;20055;-62
2023/12/09 06:24:49;;;;;;;10.50;4.00;;;;;;;;;;5112469;28;20052;-62
2023/12/09 06:27:16;;;;;;;8.88;3.60;;;;;;;;;;5112784;28;20430;-62
2023/12/09 06:29:44;;;;;;;7.22;3.53;;;;;;;;;;5112382;28;20059;-63
2023/12/09 06:32:11;;;;;;;8.52;4.07;;;;;;;;;;5113584;27;20059;-63
2023/12/09 06:34:38;;;;;;;10.82;3.58;;;;;;;;;;5132158;28;20399;-62
2023/12/09 06:37:04;;;;;;;7.30;3.40;;;;;;;;;;5132603;28;20387;-62
2023/12/09 06:39:31;;;;;;;6.90;3.25;;;;;;;;;;5128934;27;20051;-63
2023/12/09 06:42:00;;;;;;;8.00;3.10;;;;;;;;;;5132384;28;20058;-62
2023/12/09 06:44:26;;;;;;;8.05;2.80;;;;;;;;;;5152472;27;20114;-62
2023/12/09 06:46:53;;;;;;;8.10;2.75;;;;;;;;;;5153367;27;20054;-62
2023/12/09 06:49:20;;;;;;;7.60;2.75;;;;;;;;;;5153041;27;20062;-62
2023/12/09 06:51:49;;;;;;;5.95;3.13;;;;;;;;;;5153343;27;20050;-62
2023/12/09 06:54:16;;;;;;;6.25;3.20;;;;;;;;;;5132260;27;20054;-62
2023/12/09 06:56:43;;;;;;;6.80;3.53;;;;;;;;;;5132188;28;20046;-62
2023/12/09 06:59:11;;;;;;;7.80;3.72;;;;;;;;;;5132258;28;20059;-62
2023/12/09 07:01:38;;;;;;;7.55;3.50;;;;;;;;;;5144587;27;20059;-62
2023/12/09 07:04:05;;;;;;;8.15;3.42;;;;;;;;;;5141307;27;20062;-61
2023/12/09 07:06:31;;;;;;;6.28;3.15;;;;;;;;;;5132636;28;20379;-62
2023/12/09 07:08:58;;;;;;;6.40;3.20;;;;;;;;;;5127744;27;20376;-66
2023/12/09 07:11:25;;;;;;;7.15;3.40;;;;;;;;;;5132306;28;20055;-62
2023/12/09 07:13:52;;;;;;;9.60;3.80;;;;;;;;;;5132410;28;20051;-62
2023/12/09 07:16:20;;;;;;;6.80;3.30;;;;;;;;;;5132199;28;20476;-63
2023/12/09 07:18:48;;;;;;;6.97;3.30;;;;;;;;;;5143143;27;20046;-62
2023/12/09 07:21:15;;;;;;;7.85;3.33;;;;;;;;;;5152818;27;20054;-62
2023/12/09 07:23:41;;;;;;;9.23;3.42;;;;;;;;;;5135551;27;20403;-62
2023/12/09 07:26:08;;;;;;;5.85;3.08;;;;;;;;;;5112248;28;20074;-62
2023/12/09 07:28:36;;;;;;;7.00;3.35;;;;;;;;;;5135249;27;20055;-62
2023/12/09 07:31:03;;;;;;;5.05;3.00;;;;;;;;;;5146760;27;20066;-61
2023/12/09 07:33:31;;;;;;;5.90;2.83;;;;;;;;;;5135825;27;20487;-62
2023/12/09 07:35:58;;;;;;;8.63;2.97;;;;;;;;;;5135537;27;20506;-62
2023/12/09 07:38:25;;;;;;;6.50;3.15;;;;;;;;;;5128259;27;20453;-62
2023/12/09 07:40:51;;;;;;;7.80;3.22;;;;;;;;;;5114808;28;20059;-62
2023/12/09 07:43:19;;;;;;;6.95;3.22;;;;;;;;;;5115213;28;20055;-62
2023/12/09 07:45:46;;;;;;;6.25;2.92;;;;;;;;;;5114925;28;20052;-61
2023/12/09 07:48:14;;;;;;;6.88;2.90;;;;;;;;;;5124559;27;20039;-62
2023/12/09 07:50:43;;;;;;;5.87;2.70;;;;;;;;;;5134082;27;20059;-62
2023/12/09 07:53:10;;;;;;;4.72;2.65;;;;;;;;;;5123652;27;20424;-62
2023/12/09 07:55:37;;;;;;;5.47;2.70;;;;;;;;;;5116737;27;20052;-62
2023/12/09 07:58:04;;;;;;;6.45;2.83;;;;;;;;;;5115868;27;20392;-62
2023/12/09 08:00:31;;;;;;;5.65;2.60;;;;;;;;;;5135051;27;20051;-62
2023/12/09 08:03:02;;;;;;;5.35;2.50;;;;;;;;;;5131784;27;20499;-61
2023/12/09 08:05:29;;;;;;;6.57;2.67;;;;;;;;;;5130404;27;20077;-62
2023/12/09 08:07:57;;;;;;;5.32;2.70;;;;;;;;;;5131941;27;20058;-62
2023/12/09 08:10:24;;;;;;;6.30;2.65;;;;;;;;;;5134006;27;20055;-62
2023/12/09 08:12:51;;;;;;;5.90;2.67;;;;;;;;;;5120118;27;20059;-62
2023/12/09 08:15:18;;;;;;;6.38;2.40;;;;;;;;;;5134338;27;20058;-62
2023/12/09 08:17:45;;;;;;;8.40;3.00;;;;;;;;;;5134785;27;20120;-62
2023/12/09 08:20:12;;;;;;;6.78;2.78;;;;;;;;;;5134897;27;20062;-62
2023/12/09 08:22:39;;;;;;;6.80;2.10;;;;;;;;;;5133429;27;20066;-62
2023/12/09 08:25:09;;;;;;;6.78;2.67;;;;;;;;;;5134440;27;20051;-62
2023/12/09 08:27:35;;;;;;;7.95;2.65;;;;;;;;;;5134463;27;20396;-62
2023/12/09 08:30:03;;;;;;;5.65;2.38;;;;;;;;;;5133616;27;20403;-62
2023/12/09 08:32:30;;;;;;;6.88;2.70;;;;;;;;;;5123122;27;20051;-62
2023/12/09 08:34:56;;;;;;;7.53;1.95;;;;;;;;;;5134531;27;20047;-62
2023/12/09 08:37:25;;;;;;;5.57;1.98;;;;;;;;;;5136606;27;20054;-62
2023/12/09 08:39:53;;;;;;;7.03;2.80;;;;;;;;;;5132372;27;20427;-62
2023/12/09 08:42:21;;;;;;;5.40;2.08;;;;;;;;;;5134502;27;20054;-62
2023/12/09 08:44:48;;;;;;;4.82;1.77;;;;;;;;;;5124673;27;20055;-62
2023/12/09 08:47:15;;;;;;;6.25;2.00;;;;;;;;;;5115644;27;20385;-62
2023/12/09 08:49:43;;;;;;;4.60;1.63;;;;;;;;;;5129215;27;20058;-61
2023/12/09 08:52:10;;;;;;;4.20;1.70;;;;;;;;;;5123994;27;20044;-62
2023/12/09 08:54:37;;;;;;;3.90;1.95;;;;;;;;;;5114016;28;20484;-61
2023/12/09 08:57:04;;;;;;;5.65;2.17;;;;;;;;;;5130093;27;20047;-62
2023/12/09 08:59:32;;;;;;;4.45;1.88;;;;;;;;;;5126409;27;20052;-62
2023/12/09 09:01:59;;;;;;;4.35;1.88;;;;;;;;;;5117157;27;20052;-62
2023/12/09 09:04:26;;;;;;;6.88;2.17;;;;;;;;;;5121937;27;20664;-62
2023/12/09 09:06:52;;;;;;;10.50;2.35;;;;;;;;;;5135974;27;20047;-62
2023/12/09 09:09:19;;;;;;;6.05;2.42;;;;;;;;;;5130858;27;20051;-63
2023/12/09 09:11:46;;;;;;;4.75;2.05;;;;;;;;;;5132991;27;20055;-62
2023/12/09 09:14:13;;;;;;;6.90;2.22;;;;;;;;;;5125035;27;20047;-63
2023/12/09 09:16:41;;;;;;;6.07;2.15;;;;;;;;;;5134399;27;20062;-62
2023/12/09 09:19:08;;;;;;;6.28;2.40;;;;;;;;;;5139146;27;20512;-62
2023/12/09 09:21:35;;;;;;;8.20;2.65;;;;;;;;;;5152227;27;20395;-62
2023/12/09 09:24:02;;;;;;;6.25;2.55;;;;;;;;;;5150592;27;20327;-62
2023/12/09 09:26:29;;;;;;;5.43;2.00;;;;;;;;;;5154331;27;20378;-62
2023/12/09 09:28:56;;;;;;;6.40;2.22;;;;;;;;;;5150128;27;20132;-62
2023/12/09 09:31:22;;;;;;;5.88;2.05;;;;;;;;;;5136487;27;20042;-61
2023/12/09 09:33:50;;;;;;;5.72;2.60;;;;;;;;;;5138515;27;20042;-62
2023/12/09 09:36:18;;;;;;;6.03;2.58;;;;;;;;;;5136793;27;20345;-62
2023/12/09 09:38:47;;;;;;;5.28;2.10;;;;;;;;;;5137467;27;20047;-62
2023/12/09 09:41:18;;;;;;;7.88;2.63;;;;;;;;;;5152099;27;20046;-63
2023/12/09 09:43:46;;;;;;;7.50;2.50;;;;;;;;;;5150607;27;20050;-63
2023/12/09 09:46:14;;;;;;;5.28;2.00;;;;;;;;;;5144065;27;20051;-62
2023/12/09 09:48:44;;;;;;;6.03;2.20;;;;;;;;;;5138611;27;20050;-62
2023/12/09 09:51:13;;;;;;;7.97;2.10;;;;;;;;;;5135000;27;20412;-62
2023/12/09 09:53:44;;;;;;;5.50;2.30;;;;;;;;;;5136691;27;20046;-62
2023/12/09 09:56:12;;;;;;;5.90;2.08;;;;;;;;;;5132594;27;20055;-62
2023/12/09 09:58:39;;;;;;;6.30;1.90;;;;;;;;;;5138047;27;20049;-62
2023/12/09 10:01:06;;;;;;;6.55;2.35;;;;;;;;;;5144279;27;20397;-62
2023/12/09 10:03:33;;;;;;;10.05;2.88;;;;;;;;;;5140317;27;20487;-62
2023/12/09 10:06:00;;;;;;;7.97;2.60;;;;;;;;;;5147352;27;20392;-61
2023/12/09 10:08:29;;;;;;;7.07;2.33;;;;;;;;;;5134183;27;20047;-62
2023/12/09 10:10:56;;;;;;;6.95;2.63;;;;;;;;;;5139393;27;20047;-62
2023/12/09 10:13:23;;;;;;;7.50;2.53;;;;;;;;;;5132879;27;20411;-61
2023/12/09 10:15:50;;;;;;;9.98;2.83;;;;;;;;;;5145646;27;20054;-62
2023/12/09 10:18:16;;;;;;;8.18;2.17;;;;;;;;;;5136040;27;20047;-60
2023/12/09 10:20:45;;;;;;;6.10;2.10;;;;;;;;;;5134871;27;20051;-62
2023/12/09 10:23:11;;;;;;;9.63;2.55;;;;;;;;;;5133752;27;20416;-62
2023/12/09 10:25:40;;;;;;;6.85;2.35;;;;;;;;;;5146195;27;20507;-62
2023/12/09 10:28:07;;;;;;;8.10;2.17;;;;;;;;;;5144423;27;20480;-62
2023/12/09 10:30:34;;;;;;;5.57;2.22;;;;;;;;;;5146001;27;20054;-62
2023/12/09 10:33:01;;;;;;;8.82;2.58;;;;;;;;;;5134962;27;20050;-62
2023/12/09 10:35:28;;;;;;;10.13;2.50;;;;;;;;;;5132721;28;20051;-62
2023/12/09 10:37:55;;;;;;;8.15;2.83;;;;;;;;;;5143089;27;20039;-61
2023/12/09 10:40:22;;;;;;;10.02;2.60;;;;;;;;;;5135081;27;20388;-62
2023/12/09 10:42:50;;;;;;;9.02;2.80;;;;;;;;;;5138941;27;20483;-62
2023/12/09 10:45:17;;;;;;;8.27;2.40;;;;;;;;;;5134026;27;20062;-62
2023/12/09 10:47:44;;;;;;;8.65;2.85;;;;;;;;;;5139857;27;20470;-62
2023/12/09 10:50:12;;;;;;;9.75;2.53;;;;;;;;;;5140735;27;20047;-62
2023/12/09 10:52:39;;;;;;;7.88;2.15;;;;;;;;;;5147029;27;20042;-62
2023/12/09 10:55:06;;;;;;;6.05;2.20;;;;;;;;;;5152414;27;20055;-62
2023/12/09 10:57:34;;;;;;;8.75;2.85;;;;;;;;;;5148690;27;20411;-62
2023/12/09 11:00:07;;;;;;;8.80;2.50;;;;;;;;;;5132542;27;20498;-61
2023/12/09 11:02:34;;;;;;;10.15;2.78;;;;;;;;;;5134541;27;20055;-63
2023/12/09 11:05:02;;;;;;;8.80;2.90;;;;;;;;;;5136208;27;20047;-62
2023/12/09 11:07:29;;;;;;;6.60;2.70;;;;;;;;;;5148100;27;20376;-62
2023/12/09 11:09:55;;;;;;;8.13;2.45;;;;;;;;;;5141249;27;20070;-62
2023/12/09 11:12:27;;;;;;;9.13;2.65;;;;;;;;;;5135858;27;20077;-63
2023/12/09 11:14:53;;;;;;;6.85;2.53;;;;;;;;;;5139062;27;20047;-62
2023/12/09 11:17:35;;;;;;;8.20;2.38;;;;;;;;;;5150366;27;20475;-61
2023/12/09 11:20:09;;;;;;;9.48;2.85;;;;;;;;;;5136160;27;20050;-62
2023/12/09 11:22:37;;;;;;;7.55;2.45;;;;;;;;;;5136117;27;20047;-62
2023/12/09 11:25:04;;;;;;;9.02;2.75;;;;;;;;;;5146596;27;20518;-62
2023/12/09 11:27:33;;;;;;;7.65;2.67;;;;;;;;;;5155392;27;20046;-46
2023/12/09 11:30:00;;;;;;;5.85;2.33;;;;;;;;;;5142700;27;20046;-49
2023/12/09 11:32:29;;;;;;;8.50;2.65;;;;;;;;;;5144454;27;20066;-47
2023/12/09 11:34:57;;;;;;;6.28;2.25;;;;;;;;;;5150497;27;20046;-48
2023/12/09 11:37:26;;;;;;;7.47;2.35;;;;;;;;;;5148938;27;20055;-64
2023/12/09 11:39:53;;;;;;;6.38;2.47;;;;;;;;;;5140759;27;20403;-64
2023/12/09 11:42:21;;;;;;;7.78;2.55;;;;;;;;;;5150875;27;20050;-64
2023/12/09 11:44:49;;;;;;;13.15;2.90;;;;;;;;;;5143588;27;20051;-63
2023/12/09 11:47:18;;;;;;;7.60;2.35;;;;;;;;;;5137049;27;20047;-63
2023/12/09 11:49:46;;;;;;;10.15;4.20;;;;;;;;;;5139773;27;20407;-62
2023/12/09 11:52:14;;;;;;;7.20;2.55;;;;;;;;;;5140932;27;20415;-62
2023/12/09 11:54:41;;;;;;;12.18;3.10;;;;;;;;;;5136426;27;20042;-62
2023/12/09 11:57:08;;;;;;;8.40;3.15;;;;;;;;;;5145404;27;20047;-60
2023/12/09 11:59:36;;;;;;;7.35;2.63;;;;;;;;;;5143822;27;20065;-62
2023/12/09 12:02:03;;;;;;;8.75;2.67;;;;;;;;;;5136764;27;20058;-62
2023/12/09 12:04:33;;;;;;;8.85;2.80;;;;;;;;;;5146726;27;20050;-61
2023/12/09 12:07:00;;;;;;;9.73;2.95;;;;;;;;;;5136239;27;20058;-61
2023/12/09 12:09:28;;;;;;;7.38;2.90;;;;;;;;;;5136602;27;20043;-63
2023/12/09 12:11:55;;;;;;;8.75;2.97;;;;;;;;;;5153937;27;20053;-62
2023/12/09 12:14:22;;;;;;;7.90;2.85;;;;;;;;;;5155638;27;20454;-61
2023/12/09 12:16:49;;;;;;;7.50;2.47;;;;;;;;;;5151499;27;20133;-61
2023/12/09 12:19:17;;;;;;;9.13;2.85;;;;;;;;;;5143573;27;20046;-62
2023/12/09 12:21:44;;;;;;;11.07;3.35;;;;;;;;;;5155700;27;20047;-62
2023/12/09 12:24:11;;;;;;;8.45;2.47;;;;;;;;;;5155906;27;20385;-62
2023/12/09 12:26:39;;;;;;;12.45;3.97;;;;;;;;;;5153988;27;20050;-62
2023/12/09 12:29:08;;;;;;;8.57;2.97;;;;;;;;;;5155745;27;20057;-63
2023/12/09 12:31:35;;;;;;;9.82;2.75;;;;;;;;;;5155171;27;20055;-61
2023/12/09 12:34:14;;;;;;;8.65;2.75;;;;;;;;;;5155548;27;20491;-62
2023/12/09 12:36:41;;;;;;;11.75;2.92;;;;;;;;;;5154753;27;20051;-61
2023/12/09 12:39:08;;;;;;;11.48;2.90;;;;;;;;;;5155031;27;20070;-61
2023/12/09 12:41:35;;;;;;;11.27;3.30;;;;;;;;;;5153578;27;20047;-61
2023/12/09 12:44:03;;;;;;;10.27;3.22;;;;;;;;;;5155433;27;20506;-63
2023/12/09 12:46:30;;;;;;;10.60;4.00;;;;;;;;;;5154662;27;20410;-62
2023/12/09 12:48:57;;;;;;;8.05;3.53;;;;;;;;;;5155743;27;20047;-61
2023/12/09 12:51:23;;;;;;;7.30;3.20;;;;;;;;;;5155010;27;20053;-61
2023/12/09 12:53:51;;;;;;;11.30;3.38;;;;;;;;;;5155570;27;20057;-61
2023/12/09 12:56:18;;;;;;;7.53;3.22;;;;;;;;;;5141173;27;20069;-61
2023/12/09 12:58:44;;;;;;;7.95;3.03;;;;;;;;;;5134371;27;20043;-62
2023/12/09 13:01:13;;;;;;;8.73;3.40;;;;;;;;;;5134013;27;20055;-61
2023/12/09 13:03:40;;;;;;;7.55;3.20;;;;;;;;;;5134051;27;20055;-61
2023/12/09 13:06:07;;;;;;;7.07;3.30;;;;;;;;;;5147122;27;20460;-61
2023/12/09 13:08:34;;;;;;;9.80;3.53;;;;;;;;;;5155034;27;20395;-62
2023/12/09 13:11:01;;;;;;;6.95;3.15;;;;;;;;;;5152281;27;20043;-61
2023/12/09 13:13:28;;;;;;;7.43;3.72;;;;;;;;;;5153818;27;20053;-61
2023/12/09 13:15:55;;;;;;;9.68;3.28;;;;;;;;;;5138071;27;20392;-62
2023/12/09 13:18:24;;;;;;;9.40;2.95;;;;;;;;;;5133755;27;20078;-61
2023/12/09 13:20:52;;;;;;;7.43;3.03;;;;;;;;;;5133920;27;20476;-62
2023/12/09 13:23:19;;;;;;;7.25;2.90;;;;;;;;;;5134745;27;20046;-61
2023/12/09 13:25:46;;;;;;;8.52;2.97;;;;;;;;;;5148223;27;20054;-62
2023/12/09 13:28:13;;;;;;;9.07;3.38;;;;;;;;;;5137701;27;20413;-61
2023/12/09 13:30:40;;;;;;;7.07;2.80;;;;;;;;;;5144518;27;20054;-62
2023/12/09 13:33:07;;;;;;;6.28;2.70;;;;;;;;;;5136720;27;20069;-62
2023/12/09 13:35:35;;;;;;;7.25;2.85;;;;;;;;;;5154574;27;20475;-62
2023/12/09 13:38:03;;;;;;;7.03;2.92;;;;;;;;;;5154502;27;20054;-63
2023/12/09 13:40:30;;;;;;;7.47;2.75;;;;;;;;;;5153133;27;20047;-62
2023/12/09 13:42:57;;;;;;;6.88;2.60;;;;;;;;;;5134041;27;20051;-63
2023/12/09 13:45:24;;;;;;;9.30;2.53;;;;;;;;;;5133857;27;20051;-62
2023/12/09 13:47:51;;;;;;;6.82;2.60;;;;;;;;;;5133640;27;20061;-61
2023/12/09 13:50:18;;;;;;;6.78;2.75;;;;;;;;;;5133661;27;20043;-62
2023/12/09 13:52:46;;;;;;;6.07;2.63;;;;;;;;;;5153545;27;20046;-62
2023/12/09 13:55:14;;;;;;;6.35;3.00;;;;;;;;;;5154542;27;20058;-61
2023/12/09 13:57:41;;;;;;;5.78;2.40;;;;;;;;;;5153839;27;20055;-62
2023/12/09 14:00:10;;;;;;;7.60;2.50;;;;;;;;;;5153892;27;20369;-61
2023/12/09 14:02:37;;;;;;;6.93;2.23;;;;;;;;;;5153154;27;20396;-62
2023/12/09 14:05:04;;;;;;;6.90;2.35;;;;;;;;;;5154281;27;20058;-63
2023/12/09 14:07:31;;;;;;;5.88;2.30;;;;;;;;;;5154176;27;20058;-62
2023/12/09 14:09:59;;;;;;;5.50;2.20;;;;;;;;;;5154164;27;20494;-61
2023/12/09 14:12:26;;;;;;;8.93;2.45;;;;;;;;;;5148946;27;20061;-62
2023/12/09 14:14:53;;;;;;;4.85;2.00;;;;;;;;;;5153435;27;20051;-61
2023/12/09 14:17:22;;;;;;;5.85;1.88;;;;;;;;;;5147609;27;20058;-63
2023/12/09 14:19:49;;;;;;;4.80;2.83;;;;;;;;;;5133282;28;20054;-61
2023/12/09 14:22:15;;;;;;;5.93;1.85;;;;;;;;;;5137756;27;20058;-62
2023/12/09 14:24:42;;;;;;;4.00;1.70;;;;;;;;;;5153334;27;20050;-62
2023/12/09 14:27:10;;;;;;;7.22;2.15;;;;;;;;;;5150147;27;20069;-62
2023/12/09 14:29:37;;;;;;;3.88;1.80;;;;;;;;;;5153101;27;20051;-63
2023/12/09 14:32:04;;;;;;;6.03;2.30;;;;;;;;;;5153700;27;20058;-63
2023/12/09 14:34:31;;;;;;;10.65;2.70;;;;;;;;;;5153256;27;20054;-63
2023/12/09 14:36:58;;;;;;;7.20;2.63;;;;;;;;;;5156710;27;20054;-63
2023/12/09 14:39:25;;;;;;;8.05;2.45;;;;;;;;;;5157812;27;20402;-63
2023/12/09 14:41:52;;;;;;;12.20;2.60;;;;;;;;;;5150621;27;20407;-64